Time;durP1;ratioP1;P1;durP2;ratioP2;P2;SDS_P1;SDS_P2;PMS_P1;PMS_P2;Temp;Humidity;BMP_temperature;BMP_pressure;BME280_temperature;BME280_humidity;BME280_pressure;Samples;Min_cycle;Max_cycle;Signal;HPM_P1;HPM_P2
2023/04/19 00:01:29;;;;;;;18.17;7.70;;;11.20;1.00;;;;;;5011219;28;20392;-52
2023/04/19 00:03:55;;;;;;;20.50;8.63;;;11.30;1.00;;;;;;5010315;28;20447;-52
2023/04/19 00:06:21;;;;;;;19.70;7.93;;;11.30;1.00;;;;;;5011734;28;20456;-52
2023/04/19 00:08:46;;;;;;;17.80;8.17;;;11.30;1.00;;;;;;5010851;28;20447;-53
2023/04/19 00:11:12;;;;;;;18.77;7.93;;;11.20;1.00;;;;;;5011262;28;20560;-52
2023/04/19 00:13:38;;;;;;;16.10;7.13;;;11.20;1.00;;;;;;5010210;28;20495;-53
2023/04/19 00:16:04;;;;;;;19.07;8.10;;;11.20;1.00;;;;;;5011188;28;20762;-52
2023/04/19 00:18:30;;;;;;;17.50;8.07;;;11.20;1.00;;;;;;5010872;28;20906;-52
2023/04/19 00:20:55;;;;;;;17.30;8.10;;;11.20;1.00;;;;;;5010354;28;20396;-52
2023/04/19 00:23:21;;;;;;;19.27;8.50;;;11.20;1.00;;;;;;5004547;28;20803;-52
2023/04/19 00:25:48;;;;;;;19.00;8.48;;;11.20;1.00;;;;;;4995919;28;20427;-52
2023/04/19 00:28:14;;;;;;;19.90;8.43;;;11.30;1.00;;;;;;5008672;28;20766;-52
2023/04/19 00:30:39;;;;;;;16.27;7.75;;;11.20;1.00;;;;;;4996379;28;20396;-52
2023/04/19 00:33:11;;;;;;;18.10;7.63;;;11.20;1.00;;;;;;5005981;28;20508;-53
2023/04/19 00:35:38;;;;;;;20.20;8.60;;;11.20;1.00;;;;;;5003615;28;20480;-52
2023/04/19 00:38:04;;;;;;;17.20;8.60;;;11.10;1.00;;;;;;4998713;28;20425;-52
2023/04/19 00:40:31;;;;;;;21.52;9.65;;;11.20;1.00;;;;;;5005204;28;20487;-52
2023/04/19 00:42:57;;;;;;;18.60;8.37;;;11.20;1.00;;;;;;4999774;28;20396;-52
2023/04/19 00:45:24;;;;;;;21.77;8.40;;;11.20;11.80;;;;;;5006108;28;20389;-53
2023/04/19 00:47:50;;;;;;;18.67;7.70;;;10.10;1.00;;;;;;5007304;28;20454;-53
2023/04/19 00:50:16;;;;;;;17.42;8.07;;;11.20;1.00;;;;;;4989546;28;20497;-52
2023/04/19 00:52:42;;;;;;;21.92;8.30;;;11.10;20.20;;;;;;5001138;28;20900;-52
2023/04/19 00:55:07;;;;;;;19.37;8.40;;;11.10;38.50;;;;;;5010046;28;20392;-52
2023/04/19 00:57:33;;;;;;;21.25;8.05;;;11.10;1.00;;;;;;5002347;28;20415;-53
2023/04/19 01:00:00;;;;;;;16.40;7.90;;;11.10;28.40;;;;;;4991467;28;20402;-52
2023/04/19 01:02:27;;;;;;;17.35;8.43;;;11.30;1.00;;;;;;5004387;28;20743;-52
2023/04/19 01:04:52;;;;;;;19.67;8.80;;;11.30;1.00;;;;;;5000475;28;21047;-52
2023/04/19 01:07:18;;;;;;;20.60;8.10;;;11.20;1.00;;;;;;4991525;28;20430;-52
2023/04/19 01:09:45;;;;;;;20.42;9.05;;;11.10;1.00;;;;;;5000971;28;20958;-52
2023/04/19 01:12:11;;;;;;;18.67;8.80;;;11.00;1.00;;;;;;4999950;28;20490;-51
2023/04/19 01:14:36;;;;;;;20.13;8.80;;;11.00;1.00;;;;;;4989879;28;20978;-51
2023/04/19 01:17:02;;;;;;;19.60;7.70;;;10.90;99.90;;;;;;4991141;28;20390;-52
2023/04/19 01:19:27;;;;;;;18.40;7.68;;;10.80;99.90;;;;;;4994492;28;20448;-51
2023/04/19 01:21:55;;;;;;;21.33;9.53;;;10.70;99.90;;;;;;4989408;28;20395;-51
2023/04/19 01:24:20;;;;;;;21.30;9.43;;;10.50;99.90;;;;;;4999932;28;20915;-52
2023/04/19 01:26:46;;;;;;;20.07;9.57;;;10.50;99.90;;;;;;4994072;28;20478;-52
2023/04/19 01:29:12;;;;;;;18.58;8.57;;;10.60;99.90;;;;;;4992260;28;20414;-51
2023/04/19 01:31:38;;;;;;;19.07;8.17;;;10.60;99.90;;;;;;5008501;28;20479;-52
2023/04/19 01:34:03;;;;;;;23.30;8.90;;;10.70;1.00;;;;;;4996960;28;20783;-52
2023/04/19 01:36:29;;;;;;;20.80;9.63;;;10.60;9.40;;;;;;4989612;28;20407;-52
2023/04/19 01:38:55;;;;;;;20.15;9.85;;;10.50;99.90;;;;;;4988842;28;20488;-52
2023/04/19 01:41:25;;;;;;;20.17;8.85;;;10.60;20.40;;;;;;4989338;28;20470;-52
2023/04/19 01:43:51;;;;;;;18.70;8.20;;;10.50;99.90;;;;;;4989626;28;20544;-52
2023/04/19 01:46:17;;;;;;;20.00;9.40;;;10.50;50.70;;;;;;4989152;28;20438;-56
2023/04/19 01:48:43;;;;;;;17.10;8.70;;;10.50;99.90;;;;;;5003618;28;20454;-52
2023/04/19 01:51:08;;;;;;;18.85;8.40;;;10.40;99.90;;;;;;5004289;28;20417;-51
2023/04/19 01:53:34;;;;;;;16.90;8.70;;;10.50;99.90;;;;;;4988956;28;20860;-52
2023/04/19 01:55:59;;;;;;;17.90;8.23;;;10.50;99.90;;;;;;5001662;28;20405;-52
2023/04/19 01:58:25;;;;;;;18.08;8.30;;;10.50;99.90;;;;;;5007426;28;20470;-52
2023/04/19 02:00:50;;;;;;;21.40;8.73;;;10.50;95.90;;;;;;5005925;28;20866;-51
2023/04/19 02:03:16;;;;;;;17.05;8.77;;;10.50;1.00;;;;;;5008889;28;20487;-52
2023/04/19 02:05:42;;;;;;;20.30;9.37;;;10.50;17.90;;;;;;4997069;28;21263;-51
2023/04/19 02:08:07;;;;;;;20.48;8.60;;;10.60;99.90;;;;;;4990302;28;20418;-51
2023/04/19 02:10:33;;;;;;;20.47;8.90;;;10.70;1.00;;;;;;4999462;28;20788;-52
2023/04/19 02:12:58;;;;;;;17.93;8.80;;;10.70;1.00;;;;;;5008311;28;20448;-52
2023/04/19 02:15:24;;;;;;;20.08;9.07;;;10.80;1.00;;;;;;5008388;28;20468;-52
2023/04/19 02:17:50;;;;;;;19.40;9.20;;;10.80;99.90;;;;;;5007234;28;20762;-51
2023/04/19 02:20:15;;;;;;;19.00;9.07;;;10.70;99.90;;;;;;5007986;28;20594;-52
2023/04/19 02:22:42;;;;;;;18.43;9.27;;;10.70;1.00;;;;;;5006560;28;20424;-52
2023/04/19 02:25:08;;;;;;;18.60;8.95;;;10.80;99.90;;;;;;5008946;28;20385;-52
2023/04/19 02:27:33;;;;;;;20.93;9.03;;;10.80;99.90;;;;;;5008570;28;20872;-52
2023/04/19 02:29:59;;;;;;;19.70;9.38;;;10.80;99.90;;;;;;5008342;28;20389;-51
2023/04/19 02:32:25;;;;;;;19.58;9.05;;;10.80;99.90;;;;;;5007853;28;20463;-52
2023/04/19 02:34:51;;;;;;;18.47;8.10;;;10.80;99.90;;;;;;5007974;28;20396;-54
2023/04/19 02:37:17;;;;;;;18.52;8.55;;;10.80;99.90;;;;;;5008470;28;20423;-52
2023/04/19 02:39:44;;;;;;;19.42;9.20;;;11.00;99.90;;;;;;4997964;28;20441;-52
2023/04/19 02:42:10;;;;;;;18.77;8.30;;;10.90;99.90;;;;;;4994001;28;20497;-52
2023/04/19 02:44:36;;;;;;;17.95;7.93;;;10.90;99.90;;;;;;5003148;28;20510;-51
2023/04/19 02:47:01;;;;;;;19.53;8.93;;;10.80;99.90;;;;;;4999036;28;20493;-52
2023/04/19 02:49:31;;;;;;;17.60;8.60;;;10.90;99.90;;;;;;4988327;28;20714;-52
2023/04/19 02:51:57;;;;;;;16.23;7.83;;;10.80;99.90;;;;;;4997301;28;20470;-51
2023/04/19 02:54:23;;;;;;;18.33;8.63;;;10.70;99.90;;;;;;5001932;28;20400;-52
2023/04/19 02:56:48;;;;;;;17.13;7.87;;;10.70;1.00;;;;;;5002303;28;20437;-51
2023/04/19 02:59:14;;;;;;;19.33;9.48;;;10.60;1.00;;;;;;4989282;28;20509;-51
2023/04/19 03:01:39;;;;;;;19.90;8.70;;;10.60;1.00;;;;;;5000406;28;20401;-52
2023/04/19 03:04:05;;;;;;;22.17;9.53;;;10.50;1.00;;;;;;5001613;28;20492;-51
2023/04/19 03:06:31;;;;;;;23.52;9.45;;;10.50;15.40;;;;;;5001525;28;20895;-52
2023/04/19 03:08:56;;;;;;;20.53;7.77;;;10.50;1.00;;;;;;4994658;28;20404;-51
2023/04/19 03:11:22;;;;;;;20.58;8.70;;;10.50;1.00;;;;;;5002527;28;20405;-51
2023/04/19 03:13:47;;;;;;;18.53;8.53;;;10.50;1.00;;;;;;5001522;28;20483;-52
2023/04/19 03:16:13;;;;;;;17.45;8.60;;;10.50;1.00;;;;;;4996957;28;20509;-52
2023/04/19 03:18:38;;;;;;;20.03;8.80;;;10.40;89.50;;;;;;4989204;28;20910;-52
2023/04/19 03:21:04;;;;;;;19.03;9.03;;;10.30;99.90;;;;;;4992470;28;20397;-51
2023/04/19 03:23:30;;;;;;;19.52;9.10;;;10.20;1.00;;;;;;5006347;28;20558;-52
2023/04/19 03:25:56;;;;;;;20.30;10.03;;;10.20;1.00;;;;;;4994732;28;21116;-51
2023/04/19 03:28:22;;;;;;;20.63;9.10;;;10.30;1.00;;;;;;4991155;28;20913;-52
2023/04/19 03:30:47;;;;;;;21.40;8.38;;;10.40;99.90;;;;;;5003452;28;20903;-51
2023/04/19 03:33:13;;;;;;;20.63;10.20;;;10.50;99.90;;;;;;5004196;28;20393;-51
2023/04/19 03:35:38;;;;;;;23.58;9.02;;;10.50;99.90;;;;;;5005134;28;20851;-51
2023/04/19 03:38:04;;;;;;;18.77;8.40;;;10.50;61.00;;;;;;4987794;28;20518;-52
2023/04/19 03:40:32;;;;;;;17.92;8.40;;;10.40;99.90;;;;;;5005134;28;20878;-51
2023/04/19 03:42:57;;;;;;;19.17;8.47;;;10.40;99.90;;;;;;5005628;28;20404;-52
2023/04/19 03:45:23;;;;;;;20.80;9.18;;;10.40;99.90;;;;;;5008046;28;20467;-52
2023/04/19 03:47:49;;;;;;;19.00;8.80;;;10.40;99.90;;;;;;5006783;28;20507;-52
2023/04/19 03:50:14;;;;;;;19.98;9.07;;;10.40;99.90;;;;;;5008137;28;20385;-52
2023/04/19 03:52:40;;;;;;;19.83;9.13;;;10.40;99.90;;;;;;4992287;28;20377;-52
2023/04/19 03:55:06;;;;;;;20.98;9.45;;;10.40;99.90;;;;;;5007897;28;20377;-52
2023/04/19 03:57:32;;;;;;;20.05;9.00;;;10.30;1.00;;;;;;5008060;28;20438;-51
2023/04/19 03:59:58;;;;;;;17.33;8.50;;;10.40;1.00;;;;;;5007091;28;20381;-52
2023/04/19 04:02:24;;;;;;;19.92;9.20;;;10.40;1.00;;;;;;5012712;28;20405;-52
2023/04/19 04:04:55;;;;;;;20.20;9.83;;;10.30;1.00;;;;;;5005410;28;20396;-51
2023/04/19 04:07:22;;;;;;;22.30;9.80;;;10.30;1.00;;;;;;5003411;28;20775;-51
2023/04/19 04:09:48;;;;;;;20.10;10.00;;;10.30;1.00;;;;;;4996000;28;20409;-52
2023/04/19 04:12:14;;;;;;;21.35;9.68;;;10.30;1.00;;;;;;4998593;28;20887;-52
2023/04/19 04:14:40;;;;;;;20.25;9.43;;;10.30;1.00;;;;;;5006424;28;20467;-51
2023/04/19 04:17:05;;;;;;;20.87;9.50;;;10.20;99.90;;;;;;5012771;28;20396;-52
2023/04/19 04:19:31;;;;;;;22.25;9.52;;;10.20;99.90;;;;;;5009200;28;20921;-52
2023/04/19 04:21:56;;;;;;;21.37;10.20;;;10.20;99.90;;;;;;5005343;28;20397;-51
2023/04/19 04:24:22;;;;;;;23.42;9.00;;;10.20;1.00;;;;;;5010009;28;20483;-52
2023/04/19 04:26:51;;;;;;;21.03;8.90;;;10.20;99.90;;;;;;5000398;28;20405;-52
2023/04/19 04:29:17;;;;;;;20.63;9.45;;;10.20;1.00;;;;;;5005951;28;20856;-52
2023/04/19 04:31:43;;;;;;;20.30;9.25;;;10.20;99.90;;;;;;5000953;28;20451;-51
2023/04/19 04:34:08;;;;;;;22.73;9.98;;;10.20;99.90;;;;;;5007386;28;20404;-52
2023/04/19 04:36:36;;;;;;;20.65;9.63;;;10.10;99.90;;;;;;5007893;28;20397;-51
2023/04/19 04:39:02;;;;;;;20.45;9.40;;;10.10;1.00;;;;;;5009761;28;20603;-52
2023/04/19 04:41:30;;;;;;;19.83;10.30;;;10.10;99.90;;;;;;5009894;28;20397;-51
2023/04/19 04:43:59;;;;;;;21.00;9.70;;;10.10;1.00;;;;;;5008692;28;20475;-51
2023/04/19 04:46:25;;;;;;;20.17;8.95;;;10.00;1.00;;;;;;5009123;28;20870;-51
2023/04/19 04:48:51;;;;;;;19.30;8.57;;;9.90;1.00;;;;;;5007617;28;20407;-51
2023/04/19 04:51:17;;;;;;;17.75;8.93;;;9.90;1.00;;;;;;5005408;28;20412;-51
2023/04/19 04:53:43;;;;;;;21.97;9.80;;;9.90;1.00;;;;;;5008188;28;20381;-51
2023/04/19 04:56:08;;;;;;;19.50;8.80;;;9.90;1.00;;;;;;5007126;28;20425;-51
2023/04/19 04:58:34;;;;;;;19.07;9.57;;;10.00;1.00;;;;;;5008850;28;20413;-51
2023/04/19 05:00:59;;;;;;;20.35;8.93;;;9.90;1.00;;;;;;5012431;28;20475;-51
2023/04/19 05:03:26;;;;;;;18.70;8.20;;;9.90;21.50;;;;;;5008922;28;20845;-52
2023/04/19 05:05:51;;;;;;;16.65;8.35;;;9.90;99.90;;;;;;5007988;28;20385;-51
2023/04/19 05:08:17;;;;;;;17.73;9.07;;;9.90;99.90;;;;;;5006681;28;20929;-52
2023/04/19 05:10:43;;;;;;;18.07;8.13;;;9.80;1.00;;;;;;5001961;28;20423;-52
2023/04/19 05:13:08;;;;;;;22.85;9.32;;;9.80;21.90;;;;;;5001853;28;20500;-51
2023/04/19 05:15:34;;;;;;;21.23;9.20;;;9.80;1.00;;;;;;4999132;28;20464;-51
2023/04/19 05:18:00;;;;;;;20.88;9.55;;;10.00;99.90;;;;;;5007927;28;20471;-51
2023/04/19 05:20:25;;;;;;;22.17;9.50;;;10.10;99.90;;;;;;5000632;28;20421;-51
2023/04/19 05:22:57;;;;;;;23.73;11.57;;;10.20;1.00;;;;;;4996743;28;20487;-51
2023/04/19 05:25:22;;;;;;;41.47;21.83;;;10.20;1.00;;;;;;5008718;28;20438;-51
2023/04/19 05:27:48;;;;;;;33.33;16.00;;;10.30;99.90;;;;;;5007173;28;20460;-51
2023/04/19 05:30:14;;;;;;;23.05;10.80;;;10.40;99.90;;;;;;4997387;28;20430;-51
2023/04/19 05:32:39;;;;;;;21.03;9.83;;;10.40;15.90;;;;;;5011340;28;20478;-51
2023/04/19 05:35:05;;;;;;;21.48;9.63;;;10.40;1.00;;;;;;5009911;28;20425;-52
2023/04/19 05:37:31;;;;;;;20.35;8.65;;;10.40;1.00;;;;;;5009656;28;20381;-52
2023/04/19 05:39:58;;;;;;;24.05;11.10;;;10.40;99.90;;;;;;5008234;28;20453;-51
2023/04/19 05:42:24;;;;;;;17.20;7.97;;;10.30;1.00;;;;;;5003831;28;20445;-51
2023/04/19 05:44:50;;;;;;;18.27;8.77;;;10.50;99.90;;;;;;4989686;28;20752;-51
2023/04/19 05:47:16;;;;;;;18.88;9.32;;;10.60;99.90;;;;;;4990728;28;20387;-51
2023/04/19 05:49:42;;;;;;;17.95;8.20;;;10.70;99.90;;;;;;4989665;28;20391;-52
2023/04/19 05:52:07;;;;;;;19.43;8.50;;;10.80;1.00;;;;;;4990123;28;20409;-52
2023/04/19 05:54:34;;;;;;;18.55;8.02;;;10.60;1.00;;;;;;4990363;28;20386;-52
2023/04/19 05:57:01;;;;;;;18.05;7.93;;;10.30;91.70;;;;;;4989533;28;20396;-51
2023/04/19 05:59:26;;;;;;;17.35;8.30;;;10.30;99.90;;;;;;4989850;28;20513;-52
2023/04/19 06:01:54;;;;;;;19.50;8.50;;;10.40;99.90;;;;;;4989451;28;20478;-52
2023/04/19 06:04:20;;;;;;;17.83;7.95;;;10.50;99.90;;;;;;5002420;28;20880;-51
2023/04/19 06:06:46;;;;;;;20.13;9.35;;;10.50;64.50;;;;;;5014930;28;20439;-51
2023/04/19 06:09:13;;;;;;;18.53;7.57;;;10.40;1.00;;;;;;5027524;28;20795;-54
2023/04/19 06:11:39;;;;;;;19.73;8.60;;;10.40;99.90;;;;;;5028497;28;20816;-53
2023/04/19 06:14:05;;;;;;;17.73;7.45;;;10.40;99.90;;;;;;5020774;28;20427;-52
2023/04/19 06:16:30;;;;;;;20.17;8.65;;;10.70;1.00;;;;;;5009268;28;20470;-52
2023/04/19 06:18:56;;;;;;;17.48;8.40;;;11.00;1.00;;;;;;5008701;28;21004;-52
2023/04/19 06:21:21;;;;;;;17.70;7.50;;;11.10;1.00;;;;;;5008919;28;20427;-52
2023/04/19 06:23:47;;;;;;;18.60;8.15;;;11.20;99.90;;;;;;5022720;28;20722;-51
2023/04/19 06:26:13;;;;;;;17.07;8.37;;;11.50;99.90;;;;;;5028341;28;20912;-53
2023/04/19 06:28:38;;;;;;;16.15;7.93;;;12.00;99.90;;;;;;5028001;28;20398;-52
2023/04/19 06:31:04;;;;;;;15.77;6.60;;;12.30;99.90;;;;;;5029269;28;20429;-52
2023/04/19 06:33:30;;;;;;;16.15;7.53;;;12.70;64.60;;;;;;5028431;28;20483;-52
2023/04/19 06:35:56;;;;;;;17.03;7.67;;;12.70;1.00;;;;;;5027939;28;20462;-52
2023/04/19 06:38:21;;;;;;;18.80;8.73;;;12.70;1.00;;;;;;5028341;28;20807;-52
2023/04/19 06:40:47;;;;;;;14.07;7.07;;;12.90;1.00;;;;;;5010880;28;20500;-52
2023/04/19 06:43:13;;;;;;;15.00;7.10;;;12.80;1.00;;;;;;5009078;28;20418;-52
2023/04/19 06:45:38;;;;;;;14.52;6.30;;;13.20;1.00;;;;;;5008296;28;20948;-52
2023/04/19 06:48:04;;;;;;;13.73;6.93;;;14.50;1.00;;;;;;5009265;28;20394;-53
2023/04/19 06:50:30;;;;;;;17.88;7.40;;;14.90;1.00;;;;;;5008375;28;20385;-53
2023/04/19 06:52:55;;;;;;;14.63;6.70;;;15.30;1.00;;;;;;5008346;28;20392;-53
2023/04/19 06:55:21;;;;;;;15.73;6.90;;;15.60;1.00;;;;;;5008801;28;20413;-53
2023/04/19 06:57:47;;;;;;;18.02;7.90;;;14.80;1.00;;;;;;5008474;28;20409;-52
2023/04/19 07:00:13;;;;;;;16.40;7.77;;;14.40;1.00;;;;;;5008147;28;20495;-53
2023/04/19 07:02:39;;;;;;;17.30;7.20;;;14.10;1.00;;;;;;5008122;28;20686;-53
2023/04/19 07:05:06;;;;;;;16.30;7.28;;;13.70;1.00;;;;;;5008686;28;20385;-53
2023/04/19 07:07:32;;;;;;;15.40;6.50;;;13.30;1.00;;;;;;5008486;28;20383;-53
2023/04/19 07:09:58;;;;;;;16.30;7.20;;;13.10;1.00;;;;;;5007797;28;20865;-52
2023/04/19 07:12:23;;;;;;;15.63;6.88;;;13.20;1.00;;;;;;5008644;28;20864;-53
2023/04/19 07:14:55;;;;;;;17.60;6.80;;;13.20;1.00;;;;;;5023672;28;20422;-56
2023/04/19 07:17:23;;;;;;;18.70;7.38;;;13.10;1.00;;;;;;5027996;28;20387;-53
2023/04/19 07:19:49;;;;;;;13.40;6.40;;;13.00;1.00;;;;;;5027526;28;20431;-53
2023/04/19 07:22:15;;;;;;;15.35;7.00;;;12.90;1.00;;;;;;5028177;28;20449;-52
2023/04/19 07:24:40;;;;;;;19.33;7.57;;;12.70;1.00;;;;;;5027250;28;20387;-52
2023/04/19 07:27:06;;;;;;;18.70;7.60;;;12.90;1.00;;;;;;5028242;28;20470;-52
2023/04/19 07:29:36;;;;;;;18.50;7.88;;;13.30;1.00;;;;;;5028140;28;20391;-52
2023/04/19 07:32:02;;;;;;;16.33;7.60;;;13.70;1.00;;;;;;5027636;28;20401;-53
2023/04/19 07:34:28;;;;;;;16.25;7.30;;;13.80;1.00;;;;;;5028075;28;20802;-53
2023/04/19 07:36:56;;;;;;;15.10;7.00;;;14.80;1.00;;;;;;5026928;28;20387;-52
2023/04/19 07:39:21;;;;;;;15.25;6.68;;;15.90;1.00;;;;;;5028360;28;20443;-52
2023/04/19 07:41:47;;;;;;;14.73;6.43;;;16.40;1.00;;;;;;5031105;28;20465;-52
2023/04/19 07:44:13;;;;;;;15.77;7.13;;;16.60;99.90;;;;;;5030343;28;20395;-52
2023/04/19 07:46:40;;;;;;;18.92;8.50;;;17.10;99.90;;;;;;5031438;28;20383;-52
2023/04/19 07:49:05;;;;;;;17.02;7.53;;;18.20;99.90;;;;;;5032039;28;20419;-53
2023/04/19 07:51:31;;;;;;;15.75;7.07;;;18.80;99.90;;;;;;5030237;28;20423;-53
2023/04/19 07:53:57;;;;;;;16.08;7.22;;;18.60;99.90;;;;;;5031226;28;20489;-53
2023/04/19 07:56:25;;;;;;;13.05;6.63;;;18.90;99.90;;;;;;5031796;28;20383;-52
2023/04/19 07:58:50;;;;;;;15.13;7.32;;;19.00;99.90;;;;;;5031066;28;20409;-52
2023/04/19 08:01:16;;;;;;;14.77;6.90;;;18.70;99.90;;;;;;5031533;28;20379;-52
2023/04/19 08:03:42;;;;;;;13.30;6.80;;;18.80;99.90;;;;;;5030903;28;20723;-53
2023/04/19 08:06:07;;;;;;;13.57;6.50;;;17.80;99.90;;;;;;5031763;28;20414;-52
2023/04/19 08:08:34;;;;;;;17.73;7.20;;;17.00;99.90;;;;;;5031193;28;20458;-53
2023/04/19 08:11:01;;;;;;;14.02;6.95;;;16.70;99.90;;;;;;5030994;28;20384;-53
2023/04/19 08:13:27;;;;;;;15.77;6.20;;;16.00;99.90;;;;;;5026590;28;20385;-53
2023/04/19 08:15:53;;;;;;;17.17;7.10;;;15.40;99.90;;;;;;5010870;28;20388;-53
2023/04/19 08:18:18;;;;;;;16.73;7.10;;;14.80;99.90;;;;;;5011446;28;20463;-52
2023/04/19 08:20:46;;;;;;;19.37;7.30;;;14.40;99.90;;;;;;5010900;28;20408;-52
2023/04/19 08:23:11;;;;;;;16.50;7.03;;;14.20;99.90;;;;;;5011381;28;20501;-52
2023/04/19 08:25:38;;;;;;;14.52;6.80;;;13.60;99.90;;;;;;5011658;28;20851;-52
2023/04/19 08:28:04;;;;;;;15.27;6.55;;;13.50;99.90;;;;;;5011160;28;20467;-52
2023/04/19 08:30:29;;;;;;;15.27;6.70;;;13.30;99.90;;;;;;5011169;28;20385;-52
2023/04/19 08:32:55;;;;;;;16.00;6.82;;;13.30;99.90;;;;;;5010820;28;20446;-52
2023/04/19 08:35:21;;;;;;;16.90;7.20;;;13.10;99.90;;;;;;5011666;28;20377;-52
2023/04/19 08:37:47;;;;;;;13.23;6.15;;;13.10;99.90;;;;;;5009806;28;20879;-53
2023/04/19 08:40:13;;;;;;;14.80;6.40;;;13.00;99.90;;;;;;5010186;28;20447;-52
2023/04/19 08:42:39;;;;;;;16.92;7.10;;;13.00;99.90;;;;;;5009433;28;20397;-52
2023/04/19 08:45:05;;;;;;;16.37;6.77;;;12.90;99.90;;;;;;5010526;28;20388;-53
2023/04/19 08:47:35;;;;;;;16.13;7.07;;;12.90;99.90;;;;;;5011038;28;20694;-52
2023/04/19 08:50:05;;;;;;;16.48;7.40;;;12.90;99.90;;;;;;5008730;28;21104;-53
2023/04/19 08:52:33;;;;;;;14.88;6.68;;;12.90;99.90;;;;;;5010468;28;20443;-52
2023/04/19 08:55:07;;;;;;;19.15;7.93;;;12.90;99.90;;;;;;5009690;28;20944;-52
2023/04/19 08:57:34;;;;;;;15.88;6.88;;;13.00;1.00;;;;;;5010992;28;20420;-52
2023/04/19 09:00:01;;;;;;;15.35;6.63;;;13.10;1.00;;;;;;5009658;28;20897;-53
2023/04/19 09:02:27;;;;;;;15.55;6.97;;;13.20;1.00;;;;;;5010586;28;20401;-52
2023/04/19 09:04:54;;;;;;;15.90;7.30;;;13.60;1.00;;;;;;5010222;28;20396;-52
2023/04/19 09:07:26;;;;;;;16.77;7.28;;;13.90;99.90;;;;;;5009367;28;20404;-53
2023/04/19 09:10:09;;;;;;;17.73;8.00;;;14.20;99.90;;;;;;5009393;28;20452;-52
2023/04/19 09:12:36;;;;;;;14.45;7.05;;;14.60;99.90;;;;;;5010510;28;20381;-53
2023/04/19 09:15:03;;;;;;;16.85;7.20;;;14.70;99.90;;;;;;5028036;28;20398;-52
2023/04/19 09:17:30;;;;;;;14.25;6.90;;;15.00;99.90;;;;;;5029700;28;20907;-53
2023/04/19 09:19:56;;;;;;;17.27;7.00;;;15.00;99.90;;;;;;5028168;28;20421;-52
2023/04/19 09:22:22;;;;;;;18.23;7.20;;;14.90;99.90;;;;;;5030088;28;20391;-52
2023/04/19 09:24:49;;;;;;;14.82;6.90;;;14.80;99.90;;;;;;5027755;28;20433;-53
2023/04/19 09:27:29;;;;;;;16.00;7.10;;;15.10;99.90;;;;;;5030176;28;20391;-53
2023/04/19 09:29:57;;;;;;;16.52;7.40;;;15.50;99.90;;;;;;5029153;28;20379;-53
2023/04/19 09:32:23;;;;;;;16.50;6.80;;;15.70;99.90;;;;;;5030081;28;20375;-52
2023/04/19 09:34:54;;;;;;;16.88;7.80;;;15.90;99.90;;;;;;5028058;28;20385;-52
2023/04/19 09:37:21;;;;;;;14.38;6.05;;;16.10;99.90;;;;;;5029747;28;20402;-53
2023/04/19 09:39:47;;;;;;;14.40;6.32;;;16.30;99.90;;;;;;5028810;28;20529;-54
2023/04/19 09:42:12;;;;;;;14.83;6.73;;;15.90;99.90;;;;;;5029920;28;20893;-53
2023/04/19 09:44:38;;;;;;;13.90;6.15;;;16.00;99.90;;;;;;5029958;28;20466;-52
2023/04/19 09:47:24;;;;;;;14.57;6.57;;;16.20;99.90;;;;;;5030141;28;20439;-53
2023/04/19 09:50:10;;;;;;;14.85;6.07;;;16.30;99.90;;;;;;5028701;28;20452;-53
2023/04/19 09:52:36;;;;;;;14.40;6.15;;;16.70;99.90;;;;;;5029376;28;20376;-51
2023/04/19 09:55:07;;;;;;;15.23;6.90;;;16.50;99.90;;;;;;5027567;28;20709;-53
2023/04/19 09:57:33;;;;;;;13.87;6.20;;;16.30;99.90;;;;;;5029126;28;20410;-52
2023/04/19 10:00:00;;;;;;;14.00;6.27;;;16.20;99.90;;;;;;5028548;28;20379;-53
2023/04/19 10:02:33;;;;;;;14.65;6.13;;;16.00;99.90;;;;;;5029249;28;20382;-53
2023/04/19 10:04:59;;;;;;;14.65;6.32;;;15.80;99.90;;;;;;5028605;28;20530;-52
2023/04/19 10:07:26;;;;;;;12.68;5.75;;;15.60;99.90;;;;;;5029026;28;20410;-53
2023/04/19 10:09:55;;;;;;;17.02;6.57;;;15.50;99.90;;;;;;5028196;28;20853;-53
2023/04/19 10:12:24;;;;;;;15.70;6.50;;;15.20;99.90;;;;;;5029776;28;20401;-53
2023/04/19 10:14:58;;;;;;;15.68;6.40;;;15.10;99.90;;;;;;5011916;28;20396;-53
2023/04/19 10:17:25;;;;;;;14.50;6.73;;;14.80;99.90;;;;;;5009352;28;20446;-53
2023/04/19 10:19:58;;;;;;;15.32;6.43;;;14.70;99.90;;;;;;5008296;28;20785;-53
2023/04/19 10:22:24;;;;;;;15.65;6.82;;;14.70;99.90;;;;;;5009167;28;20442;-53
2023/04/19 10:25:13;;;;;;;15.85;6.65;;;14.50;99.90;;;;;;5007225;28;20480;-53
2023/04/19 10:27:40;;;;;;;13.25;6.47;;;14.50;99.90;;;;;;5008931;28;20457;-53
2023/04/19 10:30:15;;;;;;;14.82;7.20;;;14.60;99.90;;;;;;5008725;28;20468;-53
2023/04/19 10:32:43;;;;;;;13.98;6.30;;;14.40;99.90;;;;;;5008962;28;20834;-53
2023/04/19 10:35:09;;;;;;;14.48;6.95;;;14.30;99.90;;;;;;5006944;28;20388;-53
2023/04/19 10:37:39;;;;;;;14.53;6.50;;;14.40;99.90;;;;;;5008879;28;20389;-53
2023/04/19 10:40:06;;;;;;;16.02;7.00;;;14.50;99.90;;;;;;5008831;28;20455;-53
2023/04/19 10:43:33;;;;;;;14.73;6.27;;;14.80;99.90;;;;;;5008979;28;20388;-53
2023/04/19 10:46:01;;;;;;;18.42;6.15;;;14.90;99.90;;;;;;4947651;29;20408;-53
2023/04/19 10:48:32;;;;;;;13.40;5.90;;;14.70;99.90;;;;;;5000314;28;20400;-53
2023/04/19 10:51:00;;;;;;;13.70;5.78;;;14.50;99.90;;;;;;5008457;28;20679;-53
2023/04/19 10:53:46;;;;;;;13.38;5.55;;;14.30;99.90;;;;;;5008799;28;20703;-53
2023/04/19 10:56:13;;;;;;;14.50;6.33;;;14.10;99.90;;;;;;5008983;28;20404;-53
2023/04/19 10:59:10;;;;;;;13.90;6.32;;;13.80;99.90;;;;;;5007606;28;20412;-53
2023/04/19 11:01:38;;;;;;;13.50;6.00;;;13.80;99.90;;;;;;5008606;28;20742;-53
2023/04/19 11:04:09;;;;;;;12.30;5.30;;;13.90;99.90;;;;;;5008616;28;20392;-53
2023/04/19 11:06:56;;;;;;;13.13;6.35;;;13.70;99.90;;;;;;5009394;28;20499;-53
2023/04/19 11:09:26;;;;;;;17.45;6.57;;;13.50;99.90;;;;;;5008462;28;20478;-53
2023/04/19 11:11:53;;;;;;;14.98;6.40;;;13.40;99.90;;;;;;5006899;28;20385;-53
2023/04/19 11:14:22;;;;;;;15.23;6.50;;;13.20;99.90;;;;;;4999694;28;20407;-53
2023/04/19 11:16:48;;;;;;;17.92;7.47;;;12.80;99.90;;;;;;5013627;28;20396;-52
2023/04/19 11:19:18;;;;;;;17.10;7.00;;;12.80;1.00;;;;;;5007164;28;20437;-52
2023/04/19 11:21:47;;;;;;;15.63;6.95;;;12.80;1.00;;;;;;5005379;28;20404;-52
2023/04/19 11:24:17;;;;;;;14.75;6.60;;;12.70;1.00;;;;;;5006147;28;20395;-53
2023/04/19 11:26:47;;;;;;;16.35;7.65;;;12.60;1.00;;;;;;4995438;28;20413;-53
2023/04/19 11:29:13;;;;;;;16.40;7.00;;;12.60;1.00;;;;;;5022470;28;20399;-52
2023/04/19 11:31:39;;;;;;;16.52;7.35;;;12.20;99.90;;;;;;5018668;28;20385;-52
2023/04/19 11:34:05;;;;;;;19.03;7.83;;;11.90;99.90;;;;;;5006044;28;20397;-52
2023/04/19 11:36:31;;;;;;;18.10;8.05;;;11.80;99.90;;;;;;5013981;28;20922;-52
2023/04/19 11:38:57;;;;;;;19.38;8.48;;;11.70;99.90;;;;;;5003173;28;20440;-52
2023/04/19 11:41:22;;;;;;;17.75;8.93;;;11.70;1.00;;;;;;5008418;28;20679;-52
2023/04/19 11:43:48;;;;;;;21.60;10.17;;;11.80;1.00;;;;;;5007507;28;21114;-52
2023/04/19 11:46:14;;;;;;;19.67;9.15;;;11.90;99.90;;;;;;5006871;28;20385;-52
2023/04/19 11:48:53;;;;;;;20.80;9.30;;;12.00;1.00;;;;;;5007044;28;20874;-52
2023/04/19 11:51:19;;;;;;;19.38;9.48;;;11.90;99.90;;;;;;4990830;28;20394;-52
2023/04/19 11:53:45;;;;;;;20.20;10.10;;;11.90;99.90;;;;;;5004553;28;20489;-52
2023/04/19 11:56:10;;;;;;;21.75;9.98;;;11.70;1.00;;;;;;5007004;28;20405;-53
2023/04/19 11:58:48;;;;;;;23.17;10.07;;;11.80;99.90;;;;;;5002570;28;20500;-53
2023/04/19 12:01:21;;;;;;;20.40;9.30;;;11.80;36.10;;;;;;5006732;28;20452;-53
2023/04/19 12:03:51;;;;;;;23.55;10.52;;;11.80;99.90;;;;;;5007203;28;20715;-52
2023/04/19 12:06:26;;;;;;;20.65;10.77;;;11.70;1.00;;;;;;5009177;28;20878;-53
2023/04/19 12:08:53;;;;;;;17.60;8.73;;;11.50;1.00;;;;;;5006061;28;20448;-53
2023/04/19 12:11:26;;;;;;;21.65;10.23;;;11.30;99.90;;;;;;5008195;28;20400;-53
2023/04/19 12:14:11;;;;;;;21.65;10.07;;;11.10;1.00;;;;;;5010122;28;20688;-52
2023/04/19 12:16:37;;;;;;;24.30;10.07;;;10.90;99.90;;;;;;5002000;28;20398;-52
2023/04/19 12:19:14;;;;;;;19.10;8.80;;;10.80;1.00;;;;;;4987720;28;20886;-53
2023/04/19 12:21:40;;;;;;;24.73;10.40;;;10.70;1.00;;;;;;4988504;28;20489;-52
2023/04/19 12:24:06;;;;;;;19.75;9.25;;;10.90;99.90;;;;;;4999122;28;20474;-54
2023/04/19 12:26:33;;;;;;;21.42;9.88;;;11.00;1.00;;;;;;5028788;28;20510;-53
2023/04/19 12:29:01;;;;;;;19.45;9.23;;;11.00;1.00;;;;;;5030308;28;20486;-52
2023/04/19 12:31:27;;;;;;;18.05;8.38;;;11.00;1.00;;;;;;5031219;28;20383;-53
2023/04/19 12:33:53;;;;;;;14.85;7.03;;;11.00;99.90;;;;;;5029804;28;20767;-52
2023/04/19 12:36:19;;;;;;;16.90;7.87;;;10.90;99.90;;;;;;5004472;28;20406;-53
2023/04/19 12:38:44;;;;;;;19.52;8.20;;;11.00;1.00;;;;;;4995484;28;20798;-52
2023/04/19 12:41:10;;;;;;;15.90;7.90;;;11.00;1.00;;;;;;5000264;28;21004;-53